Terminal Aerodrome Forecast
Issued by NWS

Home | Current Version | Previous Version | Text Only | Print | Product List | Glossary On
Versions: 1 2 3 4 5 6 7 8 9 10 11 12
407
FTUS45 KVEF 270528
TAFEED
TAF
KEED 270528Z 2706/2806 25008KT P6SM BKN250
     FM271800 27016G24KT P6SM FEW100
     FM272300 32015G25KT P6SM FEW100=

USA.gov is the U.S. government's official web portal to all federal, state and local government web resources and services.